createdAt,value
2022-11-22T00:01:01.042Z,98041.73
2022-11-22T00:06:06.717Z,98042.65
2022-11-22T00:11:13.673Z,98041.92
2022-11-22T00:16:20.875Z,98045.22
2022-11-22T00:21:26.327Z,98042.77
2022-11-22T00:26:33.304Z,98037.23
2022-11-22T00:31:40.534Z,98042.16
2022-11-22T00:36:46.101Z,98050.92
2022-11-22T00:41:53.898Z,98058.52
2022-11-22T00:47:00.982Z,98057.27
2022-11-22T00:52:08.693Z,98059.14
2022-11-22T00:57:15.671Z,98064.91
2022-11-22T01:02:22.595Z,98066.10
2022-11-22T01:07:29.855Z,98063.33
2022-11-22T01:12:37.180Z,98063.09
2022-11-22T01:17:42.912Z,98072.83
2022-11-22T01:22:50.860Z,98079.96
2022-11-22T01:27:58.050Z,98082.91
2022-11-22T01:33:05.150Z,98083.89
2022-11-22T01:38:13.071Z,98079.52
2022-11-22T01:43:26.401Z,98085.46
2022-11-22T01:48:44.064Z,98085.30
2022-11-22T01:53:52.207Z,98072.58
2022-11-22T01:59:04.688Z,98069.58
2022-11-22T02:04:15.084Z,98065.02
2022-11-22T02:09:23.325Z,98063.34
2022-11-22T02:14:31.343Z,98064.84
2022-11-22T02:19:43.938Z,98063.92
2022-11-22T02:24:56.796Z,98052.02
2022-11-22T02:30:03.974Z,98051.22
2022-11-22T02:35:18.346Z,98045.59
2022-11-22T02:40:26.634Z,98041.20
2022-11-22T02:56:06.665Z,98034.96
2022-11-22T03:01:16.996Z,98035.73
2022-11-22T03:06:24.297Z,98039.33
2022-11-22T03:11:30.041Z,98029.61
2022-11-22T03:16:37.186Z,98021.96
2022-11-22T03:21:43.645Z,98021.67
2022-11-22T03:26:51.864Z,98032.21
2022-11-22T03:32:00.702Z,98040.31
2022-11-22T03:37:07.908Z,98039.02
2022-11-22T03:42:18.148Z,98034.46
2022-11-22T03:47:28.451Z,98029.46
2022-11-22T03:52:33.901Z,98023.75
2022-11-22T03:57:41.097Z,98014.36
2022-11-22T04:02:46.780Z,98021.63
2022-11-22T04:07:57.327Z,98024.98
2022-11-22T04:13:04.542Z,98027.83
2022-11-22T04:18:11.956Z,98031.04
2022-11-22T04:23:20.899Z,98020.33
2022-11-22T04:28:54.195Z,98019.72
2022-11-22T04:33:56.837Z,98010.21
2022-11-22T04:39:04.096Z,98004.42
2022-11-22T04:44:28.114Z,98004.15
2022-11-22T04:49:35.130Z,98009.67
2022-11-22T04:54:42.575Z,98006.61
2022-11-22T04:59:49.607Z,98007.55
2022-11-22T05:04:56.573Z,98009.56
2022-11-22T05:10:03.777Z,98006.60
2022-11-22T05:15:10.768Z,98013.28
2022-11-22T05:20:18.861Z,98010.30
2022-11-22T05:25:26.299Z,98016.84
2022-11-22T05:30:33.899Z,98021.22
2022-11-22T05:35:40.894Z,98010.55
2022-11-22T05:40:48.517Z,98007.78
2022-11-22T05:45:55.640Z,98010.49
2022-11-22T05:51:06.952Z,98017.46
2022-11-22T05:56:15.326Z,98023.88
2022-11-22T06:01:24.595Z,98024.98
2022-11-22T06:06:31.982Z,98020.36
2022-11-22T06:11:39.189Z,98020.57
2022-11-22T06:16:46.500Z,98025.61
2022-11-22T06:21:53.863Z,98025.30
2022-11-22T06:27:01.497Z,98020.38
2022-11-22T06:32:08.729Z,98030.45
2022-11-22T06:37:15.787Z,98032.67
2022-11-22T06:42:22.990Z,98051.27
2022-11-22T06:47:28.339Z,98049.52
2022-11-22T06:52:35.546Z,98050.88
2022-11-22T07:01:12.343Z,98051.08
2022-11-22T07:06:18.668Z,98051.46
2022-11-22T07:11:24.809Z,98051.89
2022-11-22T07:16:28.632Z,98056.85
2022-11-22T07:21:32.382Z,98061.70
2022-11-22T07:26:36.182Z,98078.55
2022-11-22T07:31:40.107Z,98085.04
2022-11-22T07:36:44.214Z,98082.86
2022-11-22T07:41:47.774Z,98079.69
2022-11-22T07:46:52.275Z,98074.67
2022-11-22T07:51:55.944Z,98063.95
2022-11-22T07:56:59.615Z,98061.15
2022-11-22T08:02:03.375Z,98052.23
2022-11-22T08:07:07.738Z,98065.39
2022-11-22T08:12:11.576Z,98064.10
2022-11-22T08:27:27.115Z,98063.23
2022-11-22T08:32:35.066Z,98071.04
2022-11-22T08:37:42.203Z,98075.62
2022-11-22T08:42:50.293Z,98085.72
2022-11-22T08:48:00.609Z,98098.07
2022-11-22T08:58:58.389Z,98090.35
2022-11-22T09:04:05.712Z,98096.85
2022-11-22T09:09:36.503Z,98090.68
2022-11-22T09:14:40.957Z,98078.27
2022-11-22T09:19:48.556Z,98072.22
2022-11-22T09:24:55.994Z,98078.14
2022-11-22T09:30:04.198Z,98081.94
2022-11-22T09:35:12.097Z,98083.81
2022-11-22T09:40:20.291Z,98082.02
2022-11-22T09:45:48.742Z,98077.64
2022-11-22T09:51:03.531Z,98076.23
2022-11-22T09:56:14.867Z,98067.98
2022-11-22T10:01:28.315Z,98060.96
2022-11-22T10:06:39.197Z,98062.98
2022-11-22T10:11:51.088Z,98064.11
2022-11-22T10:17:06.606Z,98065.98
2022-11-22T10:22:15.840Z,98061.96
2022-11-22T10:27:22.938Z,98049.79
2022-11-22T10:32:38.861Z,98055.83
2022-11-22T10:37:55.284Z,98057.71
2022-11-22T10:43:30.037Z,98058.96
2022-11-22T10:48:45.330Z,98059.55
2022-11-22T10:54:05.440Z,98058.96
2022-11-22T10:59:32.241Z,98045.70
2022-11-22T11:04:42.103Z,98026.91
2022-11-22T11:15:24.798Z,98016.10
2022-11-22T11:20:38.578Z,98021.57
2022-11-22T11:25:47.467Z,98016.35
2022-11-22T11:30:58.850Z,98015.00
2022-11-22T11:36:11.340Z,98016.90
2022-11-22T11:41:22.335Z,98016.91
2022-11-22T11:46:34.847Z,98022.18
2022-11-22T11:51:44.576Z,98013.22
2022-11-22T11:56:57.562Z,98011.03
2022-11-22T12:02:12.579Z,98018.69
2022-11-22T12:07:24.873Z,98015.59
2022-11-22T12:12:44.583Z,98018.63
2022-11-22T12:17:58.698Z,98019.22
2022-11-22T12:23:18.838Z,98013.30
2022-11-22T12:28:28.979Z,98007.98
2022-11-22T12:33:41.414Z,98001.09
2022-11-22T12:38:52.248Z,97993.41
2022-11-22T12:44:02.670Z,97981.31
2022-11-22T12:49:16.891Z,97978.78
2022-11-22T12:54:32.448Z,97970.44
2022-11-22T12:59:45.113Z,97963.23
2022-11-22T13:04:57.579Z,97962.25
2022-11-22T13:10:08.944Z,97955.14
2022-11-22T13:15:24.376Z,97959.75
2022-11-22T13:20:42.941Z,97971.58
2022-11-22T13:26:03.393Z,97970.76
2022-11-22T13:31:18.206Z,97970.55
2022-11-22T13:36:41.539Z,97967.25
2022-11-22T13:42:02.108Z,97963.20
2022-11-22T13:47:40.739Z,97958.69
2022-11-22T13:52:55.355Z,97955.81
2022-11-22T14:03:41.934Z,97956.64
2022-11-22T14:08:49.685Z,97963.25
2022-11-22T14:14:08.042Z,97964.27
2022-11-22T14:19:43.214Z,97957.48
2022-11-22T14:25:05.347Z,97957.66
2022-11-22T14:30:18.387Z,97960.97
2022-11-22T14:35:30.039Z,97959.34
2022-11-22T14:40:40.388Z,97961.37
2022-11-22T14:45:51.940Z,97962.62
2022-11-22T14:51:08.429Z,97966.04
2022-11-22T14:56:24.578Z,97959.27
2022-11-22T15:02:01.637Z,97960.13
2022-11-22T15:09:13.537Z,97956.74
2022-11-22T15:13:25.991Z,97954.85
2022-11-22T15:57:34.818Z,97978.05
2022-11-22T16:02:49.742Z,97978.58
2022-11-22T16:07:59.008Z,97980.75
2022-11-22T16:13:22.923Z,97985.36
2022-11-22T16:18:30.907Z,97988.59
2022-11-22T16:23:38.577Z,97993.71
2022-11-22T16:28:47.185Z,97992.62
2022-11-22T16:33:56.560Z,97991.30
2022-11-22T16:39:03.786Z,97987.60
2022-11-22T16:44:12.771Z,97986.13
2022-11-22T16:49:22.207Z,97994.95
2022-11-22T16:54:29.545Z,98001.23
2022-11-22T16:59:36.619Z,98006.37
2022-11-22T17:04:45.762Z,97996.66
2022-11-22T17:09:53.501Z,97996.39
2022-11-22T17:15:00.791Z,97999.42
2022-11-22T17:20:07.101Z,98006.70
2022-11-22T17:25:15.465Z,98016.11
2022-11-22T17:30:23.113Z,98012.17
2022-11-22T17:35:34.468Z,98004.97
2022-11-22T17:40:45.086Z,98012.82
2022-11-22T17:45:52.856Z,98017.71
2022-11-22T17:51:00.315Z,98016.63
2022-11-22T17:56:11.224Z,98013.70
2022-11-22T18:01:20.903Z,98017.61
2022-11-22T18:06:29.781Z,98021.70
2022-11-22T18:11:36.816Z,98028.17
2022-11-22T18:16:43.885Z,98036.65
2022-11-22T18:21:52.508Z,98033.94
2022-11-22T18:27:00.156Z,98033.54
2022-11-22T18:32:07.836Z,98037.20
2022-11-22T18:37:15.401Z,98044.55
2022-11-22T18:42:24.571Z,98032.19
2022-11-22T18:47:32.444Z,98028.45
2022-11-22T18:52:39.711Z,98022.79
2022-11-22T18:57:45.528Z,98027.09
2022-11-22T19:02:53.497Z,98024.89
2022-11-22T19:08:00.775Z,98031.23
2022-11-22T19:13:07.990Z,98034.47
2022-11-22T19:18:13.619Z,98031.32
2022-11-22T19:23:21.278Z,98038.50
2022-11-22T19:28:30.766Z,98044.48
2022-11-22T19:33:38.594Z,98044.35
2022-11-22T19:38:46.470Z,98048.44
2022-11-22T19:43:54.352Z,98048.27
2022-11-22T19:49:02.395Z,98050.06
2022-11-22T19:54:10.475Z,98048.29
2022-11-22T19:59:18.533Z,98054.69
2022-11-22T20:04:25.843Z,98059.29
2022-11-22T20:09:33.619Z,98063.53
2022-11-22T20:14:41.335Z,98065.59
2022-11-22T20:19:49.472Z,98070.46
2022-11-22T20:24:56.946Z,98071.00
2022-11-22T20:30:04.394Z,98069.91
2022-11-22T20:35:12.962Z,98076.92
2022-11-22T20:40:20.567Z,98068.80
2022-11-22T20:45:27.969Z,98063.56
2022-11-22T20:50:35.546Z,98057.27
2022-11-22T20:55:44.700Z,98058.95
2022-11-22T21:00:52.227Z,98068.55
2022-11-22T21:05:59.708Z,98071.23
2022-11-22T21:11:09.415Z,98075.52
2022-11-22T21:16:23.833Z,98076.00
2022-11-22T21:21:33.610Z,98076.02
2022-11-22T21:26:41.627Z,98079.61
2022-11-22T21:31:49.207Z,98079.36
2022-11-22T21:36:56.512Z,98076.84
2022-11-22T21:42:02.204Z,98073.48
2022-11-22T21:47:09.378Z,98075.66
2022-11-22T21:52:16.908Z,98075.36
2022-11-22T21:57:23.969Z,98080.64
2022-11-22T22:02:33.278Z,98083.58
2022-11-22T22:07:57.025Z,98083.85
2022-11-22T22:13:04.439Z,98076.43
2022-11-22T22:18:12.032Z,98068.20
2022-11-22T22:23:19.732Z,98062.73
2022-11-22T22:28:28.279Z,98070.55
2022-11-22T22:33:36.612Z,98074.19
2022-11-22T22:38:43.909Z,98071.68
2022-11-22T22:43:51.992Z,98080.36
2022-11-22T22:49:00.476Z,98088.70
2022-11-22T22:54:11.050Z,98087.70
2022-11-22T22:59:18.539Z,98087.27
2022-11-22T23:04:26.184Z,98080.55
2022-11-22T23:09:33.625Z,98086.04
2022-11-22T23:14:41.736Z,98086.97
2022-11-22T23:19:48.806Z,98086.20
2022-11-22T23:24:56.414Z,98083.49
2022-11-22T23:30:02.124Z,98084.93
2022-11-22T23:35:10.894Z,98073.14
2022-11-22T23:40:18.570Z,98068.41
2022-11-22T23:45:25.905Z,98064.15
2022-11-22T23:50:37.300Z,98065.51
2022-11-22T23:55:44.910Z,98064.73
